Ormsby, MN (56162)

09:26 PM CDT del 01 Agosto 2014 (GMT -0500)
NuWay Coop - Trimont (KMNTRIMO3) Alt. 1220 ft | 43.76 °N, 94.72 °W | Change Station

Current weather conditions updated 6 seconds ago

Clear
Sereno
71.8 °F
Sembra 74 °F
N
0.0
Vento Variabile Vento da OSO
Gusts 0.0 mph

Per domani non si prevedono cambiamenti della temperatura rispetto a oggi.

Oggi
Massima -- | Minima -- °F
--% Possibilità di precip.
Ieri
Massima -- | Minima -- °F
Precip. -- in
6:07 AM 8:42 PM
Luna crescente, 31% visible
Pressione 30.09 in
Visibilità 10.0 miglia
Nuvole Sereno
Indice di calore 74 °F
Punto di rugiada 63 °F
Umidità 73%
Piovosità 0.00 in
Spessore del manto nevoso Non disponibile.
Raggi UV 0 fuori da 12
Polline 7.60 fuori da 12
Qualità dell'aria Non disponibile.
Flu Activity Non disponibile.
METAR KJYG 020215Z AUTO 17003KT 10SM CLR 21/17 A3009 RMK AO2

More Conditions Fewer Conditions

Pressione 30.09 in
Visibilità 10.0 miglia
Nuvole Sereno
Indice di calore 74 °F
Punto di rugiada 63 °F
Umidità 73%
Piovosità 0.00 in
Spessore del manto nevoso Non disponibile.
Raggi UV 0 fuori da 12
Polline 7.60 fuori da 12
Qualità dell'aria Non disponibile.
Flu Activity Non disponibile.
METAR KJYG 020215Z AUTO 17003KT 10SM CLR 21/17 A3009 RMK AO2

More Conditions Fewer Conditions

10-Day Weather Forecast

Almanac

Astronomia

Aug. 01, 2014 Alba Tramonto
Ora attuale 06:07 CDT 20:42 CDT
Crepuscolo civile 05:34 CDT 21:14 CDT
Crepuscolo nautico 04:53 CDT 21:55 CDT
Crepuscolo astronomico 04:06 CDT 22:42 CDT
Luna 11:44 CDT (8/1) 23:13 CDT (8/1)
Estensione della luce visibile 15h 40m
Lunghezza del giorno
14h 34m
Tomorrow will be 2m 19s shorter.
Luna crescente, 31% of the Moon is Illuminated
Oggi
Luna crescente
Ago 3
Primo quarto
Ago 10
Luna piena
Ago 17
Ultimo quarto
Ago 25
Nuovo

Gli estremi di oggi

State Highs State Lows

Community

WunderPhotos

Upload Photos

1,739,807 foto caricate!

Nearby

Profondità neve

Stazione Profondità Altitudine
Non sono state evidenziate nuove nevicate

Attività sismica

Città  Distanza Mag. Data & Ora
Non sono state riportate attività sismiche nelle vicinanze.
Minimo Magnitudo Mostrato è 2.5.

Temperature delle acque costiere

Località Temperatura
Nessun dato dalle stazioni

Stazioni meteo nelle vicinanze

Ubicazione della stazione Temp. Indice di calore Punto di rugiada Umidità Vento Precip. Alt. Aggiornato Tipo
NuWay Coop - Trimont, Trimont, MN 71.8 °F 74 °F 63 °F 73% OSO  a  0.0 mph 0.00 in / hr 1220 ft 9:26 PM CDT Normale
Kimball Township, Mountain Lake, MN 71.6 °F 76 °F 58 °F 62% Sud  a  0.0 mph - / hr 1352 ft 9:18 PM CDT Normale
KC0NKL - Elm Creek Township, Sherburn, MN 70.3 °F 74 °F 60 °F 69% SSO  a  0.0 mph 0.00 in / hr 1322 ft 9:25 PM CDT Sequenza Rapida
NuWay Coop - Welcome, Welcome, MN 72.8 °F 75 °F 62 °F 69% NO  a  0.0 mph 0.00 in / hr 1224 ft 9:21 PM CDT Normale
West of High School, Madelia, MN 70.3 °F - 65 °F 84% NNO  a  0.0 mph 0.00 in / hr 981 ft 9:26 PM CDT Sequenza Rapida

Show More Stations Show Fewer Stations